• pl
  • eng

Awiacja
NEWS
last updated: 12.09.2019 14:49<\/div>
Dear users,
We would like to inform you that from September 2nd a test form of the GAFOR forecast is available on our webpage. Please send your comments and suggestions to gafor@imgw.pl that will contribute to product development.
Click on the bold red name to decode a message. 09:31 24.10.2020
  • WIND
  • SIGNIFICANT EURO
  • SIGNIFICANT
  • SIGMET
  • AIRMET
  • TAF FC
  • TAF FT
  • METAR GG30
  • METAR GG00


METAR EPBY 240730Z 25007KT 1900 0750W R26/1200U BR PRFG OVC001 09/09
Q1012=

METAR EPGD 240730Z 25007KT 210V270 9999 FEW005 BKN007 09/08 Q1009 =

METAR EPKK 240730Z 26009KT 6000 FEW010 BKN020 12/11 Q1014 =

METAR EPKT 240730Z 24009KT 6000 BKN006 11/11 Q1014 =

METAR EPLB 240730Z 24009KT 5000 BR FEW047 12/12 Q1012 =

METAR EPLL 240730Z 29007KT 260V330 9999 FEW009 BKN013 13/11 Q1012 =

METAR EPMO 240730Z 32009KT 8000 SCT007 BKN010 13/13 Q1011 =

METAR EPPO 240730Z 22003KT 0250 R28/0800 FG VV001 09/09 Q1013 =

METAR EPRA 240730Z NIL=

METAR EPRZ 240730Z 22005KT 9999 FEW015 SCT026 12/10 Q1013 =

METAR EPSC 240730Z 20005KT 170V240 5000 BR BKN002 OVC003 11/11 Q1011
=

METAR EPSY 240730Z 32004KT 270V340 5000 BR BKN002 11/10 Q1010=

METAR EPWA 240730Z 27009KT 2800 -DZ BR OVC004 13/13 Q1011 BECMG 4000
BR BKN006=

METAR EPWR 240730Z 26004KT 210V280 9999 BKN009 13/12 Q1014 =

METAR EPZG 240730Z 22010KT 2500 BR OVC002 11/11 Q1013 =
 METAR EPWA
Location:EPWA Warsaw
Time:07:30 UTC
Average wind direction:270 °
Mean wind speed:9 knots
Visibility:2800 meters
Precipitation:drizzle
Intensity:weak
 Occurence:mist
First layer of clouds:8/8, base 400 FT
Temperature:13 °C
Dew point:13 °C
QNH:1011 hPa
   TREND:In the next two hours will be changed
 TREND: Visibility:4000 meters
 TREND: occurence:mist
 TREND: First layer of clouds:5/8 do 7/8, base 600 FT
Awiacja.imgw.pl jest pogodowym serwisem informacyjnym
Instytutu Meteorologii i Gospodarki Wodnej Państwowego Instytutu Badawczego.
Copyright IMGW PIB 2009-2019© Wszelkie prawa zastrzeżone.